createdAt,value
2024-04-11T00:00:55.127Z,0
2024-04-11T00:01:56.977Z,0
2024-04-11T00:02:55.185Z,0
2024-04-11T00:03:55.301Z,0
2024-04-11T00:04:55.135Z,0
2024-04-11T00:05:55.206Z,0
2024-04-11T00:06:55.135Z,0
2024-04-11T00:07:55.145Z,0
2024-04-11T00:08:55.178Z,0
2024-04-11T00:09:55.140Z,0
2024-04-11T00:10:55.139Z,0
2024-04-11T00:11:55.263Z,0
2024-04-11T00:12:55.143Z,0
2024-04-11T00:13:55.148Z,0
2024-04-11T00:14:56.752Z,0
2024-04-11T00:15:55.250Z,0
2024-04-11T00:16:55.143Z,0
2024-04-11T00:17:55.215Z,0
2024-04-11T00:18:55.178Z,0
2024-04-11T00:19:55.154Z,0
2024-04-11T00:20:55.156Z,0
2024-04-11T00:21:55.145Z,0
2024-04-11T00:22:55.150Z,0
2024-04-11T00:23:55.188Z,0
2024-04-11T00:24:55.148Z,0
2024-04-11T00:25:55.144Z,0
2024-04-11T00:26:55.191Z,0
2024-04-11T00:27:55.149Z,0
2024-04-11T00:28:55.158Z,0
2024-04-11T00:29:55.215Z,0
2024-04-11T00:30:55.177Z,0
2024-04-11T00:31:55.148Z,0
2024-04-11T00:32:55.321Z,0
2024-04-11T00:33:55.307Z,0
2024-04-11T00:34:55.338Z,0
2024-04-11T00:35:55.183Z,0
2024-04-11T00:36:55.167Z,0
2024-04-11T00:37:55.157Z,0
2024-04-11T00:38:55.243Z,0
2024-04-11T00:39:55.171Z,0
2024-04-11T00:40:55.178Z,0
2024-04-11T00:41:55.190Z,0
2024-04-11T00:42:55.158Z,0
2024-04-11T00:43:55.170Z,0
2024-04-11T00:44:55.290Z,0
2024-04-11T00:45:55.156Z,0
2024-04-11T00:46:55.165Z,0
2024-04-11T00:47:55.277Z,0
2024-04-11T00:48:55.202Z,0
2024-04-11T00:49:55.161Z,0
2024-04-11T00:50:55.232Z,0
2024-04-11T00:51:55.169Z,0
2024-04-11T00:52:55.160Z,0
2024-04-11T00:53:55.256Z,0
2024-04-11T00:54:55.176Z,0
2024-04-11T00:55:55.166Z,0
2024-04-11T00:56:55.244Z,0
2024-04-11T00:57:55.169Z,0
2024-04-11T00:58:55.172Z,0
2024-04-11T00:59:55.200Z,0
2024-04-11T01:00:55.178Z,0
2024-04-11T01:01:55.177Z,0
2024-04-11T01:02:55.273Z,0
2024-04-11T01:03:55.384Z,0
2024-04-11T01:04:55.398Z,0
2024-04-11T01:05:55.272Z,0
2024-04-11T01:06:55.196Z,0
2024-04-11T01:07:55.187Z,0
2024-04-11T01:08:55.315Z,0
2024-04-11T01:09:55.185Z,0
2024-04-11T01:10:55.210Z,0
2024-04-11T01:11:55.224Z,0
2024-04-11T01:12:55.188Z,0
2024-04-11T01:13:55.182Z,0
2024-04-11T01:14:55.221Z,0
2024-04-11T01:15:55.205Z,0
2024-04-11T01:16:55.195Z,0
2024-04-11T01:17:55.409Z,0
2024-04-11T01:18:55.273Z,0
2024-04-11T01:19:55.180Z,0
2024-04-11T01:20:55.218Z,0
2024-04-11T01:21:55.186Z,0
2024-04-11T01:22:55.231Z,0
2024-04-11T01:23:55.265Z,0
2024-04-11T01:24:55.187Z,0
2024-04-11T01:25:55.187Z,0
2024-04-11T01:26:55.204Z,0
2024-04-11T01:27:55.185Z,0
2024-04-11T01:28:55.188Z,0
2024-04-11T01:29:55.286Z,0
2024-04-11T01:30:55.189Z,0
2024-04-11T01:31:55.191Z,0
2024-04-11T01:32:55.247Z,0
2024-04-11T01:33:55.268Z,0
2024-04-11T01:34:55.365Z,0
2024-04-11T01:35:55.226Z,0
2024-04-11T01:36:55.190Z,0
2024-04-11T01:37:55.195Z,0
2024-04-11T01:38:55.280Z,0
2024-04-11T01:39:55.188Z,0
2024-04-11T01:40:55.191Z,0
2024-04-11T01:41:55.321Z,0
2024-04-11T01:42:55.193Z,0
2024-04-11T01:43:55.204Z,0
2024-04-11T01:44:55.266Z,0
2024-04-11T01:45:55.244Z,0
2024-04-11T01:46:55.206Z,0
2024-04-11T01:47:55.302Z,0
2024-04-11T01:48:55.239Z,0
2024-04-11T01:49:55.199Z,0
2024-04-11T01:50:55.301Z,0
2024-04-11T01:51:55.198Z,0
2024-04-11T01:52:55.205Z,0
2024-04-11T01:53:55.341Z,0
2024-04-11T01:54:55.214Z,0
2024-04-11T01:55:55.204Z,0
2024-04-11T01:56:55.394Z,0
2024-04-11T01:57:55.204Z,0
2024-04-11T01:58:55.213Z,0
2024-04-11T01:59:55.259Z,0
2024-04-11T02:00:55.272Z,0
2024-04-11T02:01:55.203Z,0
2024-04-11T02:02:55.260Z,0
2024-04-11T02:03:55.510Z,0
2024-04-11T02:04:55.282Z,0
2024-04-11T02:05:55.247Z,0
2024-04-11T02:06:55.207Z,0
2024-04-11T02:07:55.209Z,0
2024-04-11T02:08:55.245Z,0
2024-04-11T02:09:55.212Z,0
2024-04-11T02:10:55.225Z,0
2024-04-11T02:11:55.335Z,0
2024-04-11T02:12:56.091Z,0
2024-04-11T02:13:55.208Z,0
2024-04-11T02:14:55.232Z,0
2024-04-11T02:15:55.209Z,0
2024-04-11T02:16:55.299Z,0
2024-04-11T02:17:55.316Z,0
2024-04-11T02:18:55.255Z,0
2024-04-11T02:19:55.211Z,0
2024-04-11T02:20:55.234Z,0
2024-04-11T02:21:56.634Z,0
2024-04-11T02:22:55.240Z,0
2024-04-11T02:23:55.267Z,0
2024-04-11T02:24:55.216Z,0
2024-04-11T02:25:55.215Z,0
2024-04-11T02:26:55.261Z,0
2024-04-11T02:27:55.217Z,0
2024-04-11T02:28:55.218Z,0
2024-04-11T02:29:55.336Z,0
2024-04-11T02:30:55.503Z,0
2024-04-11T02:31:55.223Z,0
2024-04-11T02:32:55.338Z,0
2024-04-11T02:33:55.438Z,0
2024-04-11T02:34:55.365Z,0
2024-04-11T02:35:55.245Z,0
2024-04-11T02:36:55.232Z,0
2024-04-11T02:37:55.220Z,0
2024-04-11T02:38:55.255Z,0
2024-04-11T02:39:55.228Z,0
2024-04-11T02:40:55.223Z,0
2024-04-11T02:41:55.275Z,0
2024-04-11T02:42:55.243Z,0
2024-04-11T02:43:55.229Z,0
2024-04-11T02:44:55.266Z,0
2024-04-11T02:45:55.226Z,0
2024-04-11T02:46:55.240Z,0
2024-04-11T02:47:55.522Z,0
2024-04-11T02:48:55.382Z,0
2024-04-11T02:49:55.228Z,0
2024-04-11T02:50:55.242Z,0
2024-04-11T02:51:55.232Z,0
2024-04-11T02:52:55.239Z,0
2024-04-11T02:53:55.478Z,0
2024-04-11T02:54:55.235Z,0
2024-04-11T02:55:55.235Z,0
2024-04-11T02:56:55.257Z,0
2024-04-11T02:57:55.230Z,0
2024-04-11T02:58:55.251Z,0
2024-04-11T02:59:55.253Z,0
2024-04-11T03:00:55.295Z,0
2024-04-11T03:01:55.237Z,0
2024-04-11T03:02:55.262Z,0
2024-04-11T03:03:55.467Z,0
2024-04-11T03:04:55.262Z,0
2024-04-11T03:05:55.298Z,0
2024-04-11T03:06:55.243Z,0
2024-04-11T03:07:55.244Z,0
2024-04-11T03:08:55.317Z,0
2024-04-11T03:09:55.251Z,0
2024-04-11T03:10:55.248Z,0
2024-04-11T03:11:55.285Z,0
2024-04-11T03:12:55.245Z,0
2024-04-11T03:13:55.259Z,0
2024-04-11T03:14:55.369Z,0
2024-04-11T03:15:55.291Z,0
2024-04-11T03:16:55.411Z,0
2024-04-11T03:17:55.285Z,0
2024-04-11T03:18:55.446Z,0
2024-04-11T03:19:55.245Z,0
2024-04-11T03:20:55.307Z,0
2024-04-11T03:21:55.247Z,0
2024-04-11T03:22:55.249Z,0
2024-04-11T03:23:55.348Z,0
2024-04-11T03:24:55.247Z,0
2024-04-11T03:25:55.251Z,0
2024-04-11T03:26:55.266Z,0
2024-04-11T03:27:55.250Z,0
2024-04-11T03:28:55.256Z,0
2024-04-11T03:29:55.296Z,0
2024-04-11T03:30:55.273Z,0
2024-04-11T03:31:55.248Z,0
2024-04-11T03:32:55.361Z,0
2024-04-11T03:33:55.345Z,0
2024-04-11T03:34:55.247Z,0
2024-04-11T03:35:55.330Z,0
2024-04-11T03:36:55.249Z,0
2024-04-11T03:37:55.250Z,0
2024-04-11T03:38:55.281Z,0
2024-04-11T03:39:55.251Z,0
2024-04-11T03:40:56.528Z,0
2024-04-11T03:41:55.255Z,0
2024-04-11T03:42:55.271Z,0
2024-04-11T03:43:55.251Z,0
2024-04-11T03:44:55.254Z,0
2024-04-11T03:45:55.251Z,0
2024-04-11T03:46:55.329Z,0
2024-04-11T03:47:55.354Z,0
2024-04-11T03:48:55.380Z,0
2024-04-11T03:49:55.265Z,0
2024-04-11T03:50:55.264Z,0
2024-04-11T03:51:55.261Z,0
2024-04-11T03:52:55.271Z,0
2024-04-11T03:53:55.323Z,0
2024-04-11T03:54:55.250Z,0
2024-04-11T03:55:55.269Z,0
2024-04-11T03:56:55.279Z,0
2024-04-11T03:57:55.258Z,0
2024-04-11T03:58:55.267Z,0
2024-04-11T03:59:55.266Z,0
2024-04-11T04:00:55.269Z,0
2024-04-11T04:01:55.270Z,0
2024-04-11T04:02:55.334Z,0
2024-04-11T04:03:55.406Z,0
2024-04-11T04:04:55.323Z,0
2024-04-11T04:05:55.320Z,0
2024-04-11T04:06:55.256Z,0
2024-04-11T04:07:55.266Z,0
2024-04-11T04:08:55.284Z,0
2024-04-11T04:09:55.275Z,0
2024-04-11T04:10:55.403Z,0
2024-04-11T04:11:55.304Z,0
2024-04-11T04:12:55.259Z,1
2024-04-11T04:13:55.258Z,1
2024-04-11T04:14:55.384Z,1
2024-04-11T04:15:55.285Z,1
2024-04-11T04:16:55.268Z,1
2024-04-11T04:17:55.372Z,2
2024-04-11T04:18:55.335Z,2
2024-04-11T04:19:55.267Z,2
2024-04-11T04:20:55.317Z,2
2024-04-11T04:21:55.256Z,2
2024-04-11T04:22:55.270Z,4
2024-04-11T04:23:55.291Z,4
2024-04-11T04:24:55.266Z,4
2024-04-11T04:25:55.270Z,4
2024-04-11T04:26:55.294Z,4
2024-04-11T04:27:55.265Z,7
2024-04-11T04:28:55.286Z,7
2024-04-11T04:29:55.308Z,7
2024-04-11T04:30:57.534Z,7
2024-04-11T04:31:55.279Z,7
2024-04-11T04:32:55.375Z,11
2024-04-11T04:33:55.411Z,11
2024-04-11T04:34:55.285Z,11
2024-04-11T04:35:55.314Z,11
2024-04-11T04:36:55.276Z,11
2024-04-11T04:37:55.278Z,16
2024-04-11T04:38:55.297Z,16
2024-04-11T04:39:55.279Z,16
2024-04-11T04:40:55.276Z,16
2024-04-11T04:41:55.329Z,16
2024-04-11T04:42:55.282Z,23
2024-04-11T04:43:55.274Z,23
2024-04-11T04:44:55.333Z,23
2024-04-11T04:45:55.286Z,23
2024-04-11T04:46:55.318Z,23
2024-04-11T04:47:55.344Z,32
2024-04-11T04:48:55.360Z,32
2024-04-11T04:49:55.279Z,32
2024-04-11T04:50:55.355Z,32
2024-04-11T04:51:55.286Z,32
2024-04-11T04:52:55.280Z,42
2024-04-11T04:53:55.332Z,42
2024-04-11T04:54:55.286Z,42
2024-04-11T04:55:55.377Z,42
2024-04-11T04:56:55.293Z,42
2024-04-11T04:57:55.282Z,55
2024-04-11T04:58:55.278Z,55
2024-04-11T04:59:55.301Z,55
2024-04-11T05:00:55.329Z,55
2024-04-11T05:01:55.284Z,55
2024-04-11T05:02:55.327Z,69
2024-04-11T05:03:55.446Z,69
2024-04-11T05:04:55.419Z,69
2024-04-11T05:05:55.294Z,69
2024-04-11T05:06:55.301Z,69
2024-04-11T05:07:55.294Z,82
2024-04-11T05:08:55.746Z,82
2024-04-11T05:09:55.289Z,82
2024-04-11T05:10:55.393Z,82
2024-04-11T05:11:55.415Z,82
2024-04-11T05:12:55.292Z,103
2024-04-11T05:13:55.288Z,103
2024-04-11T05:14:55.341Z,103
2024-04-11T05:15:55.321Z,103
2024-04-11T05:16:55.291Z,103
2024-04-11T05:17:55.363Z,126
2024-04-11T05:18:55.679Z,126
2024-04-11T05:19:55.300Z,126
2024-04-11T05:20:55.330Z,126
2024-04-11T05:21:55.291Z,126
2024-04-11T05:22:55.348Z,155
2024-04-11T05:23:55.522Z,155
2024-04-11T05:24:55.299Z,155
2024-04-11T05:25:55.309Z,155
2024-04-11T05:26:55.334Z,155
2024-04-11T05:27:55.303Z,187
2024-04-11T05:28:55.695Z,187
2024-04-11T05:29:55.317Z,187
2024-04-11T05:30:55.299Z,187
2024-04-11T05:31:55.302Z,187
2024-04-11T05:32:55.438Z,214
2024-04-11T05:33:55.579Z,214
2024-04-11T05:34:55.356Z,214
2024-04-11T05:35:55.316Z,214
2024-04-11T05:36:55.318Z,214
2024-04-11T05:37:55.308Z,224
2024-04-11T05:38:55.349Z,224
2024-04-11T05:39:55.301Z,224
2024-04-11T05:40:55.317Z,224
2024-04-11T05:41:55.330Z,224
2024-04-11T05:42:55.309Z,267
2024-04-11T05:43:55.305Z,267
2024-04-11T05:44:55.481Z,267
2024-04-11T05:45:55.301Z,267
2024-04-11T05:46:55.343Z,267
2024-04-11T05:47:55.387Z,291
2024-04-11T05:48:55.377Z,291
2024-04-11T05:49:55.307Z,291
2024-04-11T05:50:55.323Z,291
2024-04-11T05:51:55.318Z,291
2024-04-11T05:52:55.305Z,313
2024-04-11T05:53:55.319Z,313
2024-04-11T05:54:55.330Z,313
2024-04-11T05:55:55.310Z,313
2024-04-11T05:56:55.342Z,313
2024-04-11T05:57:55.310Z,343
2024-04-11T05:58:55.302Z,343
2024-04-11T05:59:55.336Z,343
2024-04-11T06:00:55.320Z,343
2024-04-11T06:01:55.390Z,343
2024-04-11T06:02:55.363Z,375
2024-04-11T06:03:55.346Z,375
2024-04-11T06:04:55.315Z,375
2024-04-11T06:05:55.350Z,375
2024-04-11T06:06:55.314Z,375
2024-04-11T06:07:55.318Z,411
2024-04-11T06:08:55.355Z,411
2024-04-11T06:09:55.316Z,411
2024-04-11T06:10:55.406Z,411
2024-04-11T06:11:55.402Z,411
2024-04-11T06:12:55.315Z,458
2024-04-11T06:13:55.317Z,458
2024-04-11T06:14:55.343Z,458
2024-04-11T06:15:55.340Z,458
2024-04-11T06:16:55.313Z,458
2024-04-11T06:17:55.423Z,499
2024-04-11T06:18:55.368Z,499
2024-04-11T06:19:55.314Z,499
2024-04-11T06:20:55.888Z,499
2024-04-11T06:21:55.324Z,499
2024-04-11T06:22:55.322Z,526
2024-04-11T06:23:55.381Z,526
2024-04-11T06:24:55.328Z,526
2024-04-11T06:25:55.324Z,526
2024-04-11T06:26:55.365Z,526
2024-04-11T06:27:55.329Z,592
2024-04-11T06:28:55.320Z,592
2024-04-11T06:29:55.333Z,592
2024-04-11T06:30:55.341Z,592
2024-04-11T06:31:55.320Z,592
2024-04-11T06:32:55.409Z,657
2024-04-11T06:33:55.358Z,657
2024-04-11T06:34:55.385Z,657
2024-04-11T06:35:55.372Z,657
2024-04-11T06:36:55.339Z,657
2024-04-11T06:37:55.328Z,703
2024-04-11T06:38:55.405Z,703
2024-04-11T06:39:55.326Z,703
2024-04-11T06:40:55.328Z,703
2024-04-11T06:41:55.491Z,703
2024-04-11T06:42:55.348Z,741
2024-04-11T06:44:55.355Z,741
2024-04-11T06:45:55.322Z,741
2024-04-11T06:46:55.343Z,741
2024-04-11T06:47:55.427Z,782
2024-04-11T06:48:55.406Z,782
2024-04-11T06:49:55.335Z,782
2024-04-11T06:50:55.357Z,782
2024-04-11T06:51:55.322Z,782
2024-04-11T06:52:55.326Z,858
2024-04-11T06:53:55.363Z,858
2024-04-11T06:54:55.332Z,858
2024-04-11T06:55:55.344Z,858
2024-04-11T06:56:55.379Z,858
2024-04-11T06:57:55.328Z,908
2024-04-11T06:58:55.341Z,908
2024-04-11T06:59:55.367Z,908
2024-04-11T07:00:55.414Z,908
2024-04-11T07:01:55.343Z,908
2024-04-11T07:02:55.381Z,908
2024-04-11T07:03:55.353Z,954
2024-04-11T07:04:55.333Z,954
2024-04-11T07:05:55.351Z,954
2024-04-11T07:06:55.335Z,954
2024-04-11T07:07:55.333Z,954
2024-04-11T07:08:55.395Z,1148
2024-04-11T07:09:55.329Z,1148
2024-04-11T07:10:55.340Z,1148
2024-04-11T07:11:55.356Z,1148
2024-04-11T07:12:55.337Z,1148
2024-04-11T07:13:55.525Z,1223
2024-04-11T07:14:55.518Z,1223
2024-04-11T07:15:55.334Z,1223
2024-04-11T07:16:55.340Z,1223
2024-04-11T07:17:55.374Z,1223
2024-04-11T07:18:55.333Z,1155
2024-04-11T07:19:55.359Z,1155
2024-04-11T07:20:55.346Z,1155
2024-04-11T07:21:55.336Z,1155
2024-04-11T07:22:55.344Z,1155
2024-04-11T07:23:55.509Z,1152
2024-04-11T07:24:55.341Z,1152
2024-04-11T07:25:55.340Z,1152
2024-04-11T07:26:55.408Z,1152
2024-04-11T07:27:55.341Z,1152
2024-04-11T07:28:55.341Z,1258
2024-04-11T07:29:55.379Z,1258
2024-04-11T07:30:55.363Z,1258
2024-04-11T07:31:55.346Z,1258
2024-04-11T07:32:55.416Z,1258
2024-04-11T07:33:55.391Z,1273
2024-04-11T07:34:55.344Z,1273
2024-04-11T07:35:55.349Z,1273
2024-04-11T07:36:55.350Z,1273
2024-04-11T07:37:55.347Z,1273
2024-04-11T07:38:55.374Z,1367
2024-04-11T07:39:55.349Z,1367
2024-04-11T07:40:55.354Z,1367
2024-04-11T07:41:55.402Z,1367
2024-04-11T07:42:55.349Z,1367
2024-04-11T07:43:55.349Z,1446
2024-04-11T07:44:55.375Z,1446
2024-04-11T07:45:55.343Z,1446
2024-04-11T07:47:00.561Z,1446
2024-04-11T07:47:57.464Z,1446
2024-04-11T07:48:55.463Z,1696
2024-04-11T07:49:55.412Z,1696
2024-04-11T07:50:55.391Z,1696
2024-04-11T07:51:55.351Z,1696
2024-04-11T07:52:55.364Z,1696
2024-04-11T07:53:55.389Z,1637
2024-04-11T07:54:55.349Z,1637
2024-04-11T07:55:55.350Z,1637
2024-04-11T07:56:55.442Z,1637
2024-04-11T07:57:55.366Z,1637
2024-04-11T07:58:55.357Z,1776
2024-04-11T07:59:55.460Z,1776
2024-04-11T08:00:55.404Z,1776
2024-04-11T08:01:55.396Z,1776
2024-04-11T08:03:55.378Z,2025
2024-04-11T08:04:55.351Z,2025
2024-04-11T08:05:55.359Z,2025
2024-04-11T08:06:55.371Z,2025
2024-04-11T08:07:55.368Z,2025
2024-04-11T08:08:55.440Z,2388
2024-04-11T08:09:55.364Z,2388
2024-04-11T08:10:55.376Z,2388
2024-04-11T08:11:55.367Z,2388
2024-04-11T08:12:55.351Z,2388
2024-04-11T08:13:55.358Z,2667
2024-04-11T08:14:55.461Z,2667
2024-04-11T08:15:55.356Z,2667
2024-04-11T08:16:55.398Z,2667
2024-04-11T08:17:55.421Z,2667
2024-04-11T08:18:55.369Z,2373
2024-04-11T08:19:57.665Z,2373
2024-04-11T08:20:55.375Z,2373
2024-04-11T08:21:55.357Z,2373
2024-04-11T08:22:55.360Z,2373
2024-04-11T08:23:55.398Z,2345
2024-04-11T08:24:55.661Z,2345
2024-04-11T08:25:55.369Z,2345
2024-04-11T08:26:55.382Z,2345
2024-04-11T08:27:55.357Z,2345
2024-04-11T08:28:55.357Z,2267
2024-04-11T08:29:55.470Z,2267
2024-04-11T08:30:55.357Z,2267
2024-04-11T08:31:55.360Z,2267
2024-04-11T08:32:55.433Z,2267
2024-04-11T08:33:55.383Z,2302
2024-04-11T08:34:55.377Z,2302
2024-04-11T08:35:55.467Z,2302
2024-04-11T08:36:55.360Z,2302
2024-04-11T08:37:55.360Z,2302
2024-04-11T08:38:55.386Z,2143
2024-04-11T08:39:55.379Z,2143
2024-04-11T08:40:55.739Z,2143
2024-04-11T08:41:55.384Z,2143
2024-04-11T08:42:55.362Z,2143
2024-04-11T08:43:55.364Z,2328
2024-04-11T08:44:55.413Z,2328
2024-04-11T08:45:55.369Z,2328
2024-04-11T08:46:55.415Z,2328
2024-04-11T08:47:55.405Z,2328
2024-04-11T08:48:55.557Z,2971
2024-04-11T08:49:55.447Z,2971
2024-04-11T08:50:55.500Z,2971
2024-04-11T08:51:55.502Z,2971
2024-04-11T08:52:55.359Z,2971
2024-04-11T08:54:00.263Z,2801
2024-04-11T08:54:55.368Z,2801
2024-04-11T08:55:55.365Z,2801
2024-04-11T08:56:55.412Z,2801
2024-04-11T08:57:55.362Z,2801
2024-04-11T08:58:55.377Z,2790
2024-04-11T08:59:55.403Z,2790
2024-04-11T09:00:55.379Z,2790
2024-04-11T09:01:55.370Z,2790
2024-04-11T09:02:55.421Z,2790
2024-04-11T09:03:55.593Z,2942
2024-04-11T09:05:00.158Z,2942
2024-04-11T09:05:57.101Z,2942
2024-04-11T09:06:55.393Z,2942
2024-04-11T09:07:55.383Z,2942
2024-04-11T09:08:55.507Z,2953
2024-04-11T09:09:55.368Z,2953
2024-04-11T09:10:55.382Z,2953
2024-04-11T09:11:55.432Z,2953
2024-04-11T09:12:55.376Z,2953
2024-04-11T09:13:55.378Z,3157
2024-04-11T09:14:55.611Z,3157
2024-04-11T09:15:55.390Z,3157
2024-04-11T09:16:55.379Z,3157
2024-04-11T09:17:55.394Z,3157
2024-04-11T09:18:55.373Z,3129
2024-04-11T09:19:55.375Z,3129
2024-04-11T09:20:55.395Z,3129
2024-04-11T09:21:55.370Z,3129
2024-04-11T09:22:56.675Z,3129
2024-04-11T09:23:55.538Z,3206
2024-04-11T09:24:55.374Z,3206
2024-04-11T09:25:55.375Z,3206
2024-04-11T09:26:55.492Z,3206
2024-04-11T09:27:55.375Z,3206
2024-04-11T09:28:55.385Z,3331
2024-04-11T09:29:55.390Z,3331
2024-04-11T09:30:55.376Z,3331
2024-04-11T09:31:55.377Z,3331
2024-04-11T09:32:55.446Z,3331
2024-04-11T09:33:55.838Z,3312
2024-04-11T09:34:55.377Z,3312
2024-04-11T09:35:55.596Z,3312
2024-04-11T09:36:55.376Z,3312
2024-04-11T09:37:55.375Z,3312
2024-04-11T09:38:55.470Z,3225
2024-04-11T09:39:55.455Z,3225
2024-04-11T09:40:55.381Z,3225
2024-04-11T09:41:55.512Z,3225
2024-04-11T09:42:55.378Z,3225
2024-04-11T09:43:55.383Z,3337
2024-04-11T09:44:55.957Z,3337
2024-04-11T09:45:55.380Z,3337
2024-04-11T09:46:55.393Z,3337
2024-04-11T09:47:55.516Z,3337
2024-04-11T09:48:55.457Z,3617
2024-04-11T09:49:55.611Z,3617
2024-04-11T09:50:55.420Z,3617
2024-04-11T09:51:55.379Z,3617
2024-04-11T09:52:55.378Z,3617
2024-04-11T09:53:55.438Z,4944
2024-04-11T09:54:55.407Z,4944
2024-04-11T09:55:55.387Z,4944
2024-04-11T09:56:55.409Z,4944
2024-04-11T09:57:55.385Z,4944
2024-04-11T09:58:55.381Z,4034
2024-04-11T09:59:55.390Z,4034
2024-04-11T10:00:55.406Z,4034
2024-04-11T10:01:55.380Z,4034
2024-04-11T10:02:55.541Z,4034
2024-04-11T10:03:55.403Z,4810
2024-04-11T10:04:55.384Z,4810
2024-04-11T10:05:55.438Z,4810
2024-04-11T10:06:55.386Z,4810
2024-04-11T10:07:55.381Z,4268
2024-04-11T10:08:55.449Z,4268
2024-04-11T10:09:55.399Z,4268
2024-04-11T10:10:55.409Z,4268
2024-04-11T10:11:55.405Z,4268
2024-04-11T10:12:55.395Z,5587
2024-04-11T10:13:55.386Z,5587
2024-04-11T10:14:55.422Z,5587
2024-04-11T10:15:55.394Z,5587
2024-04-11T10:16:55.393Z,5587
2024-04-11T10:17:55.492Z,5969
2024-04-11T10:18:56.088Z,5969
2024-04-11T10:19:55.596Z,5969
2024-04-11T10:20:55.402Z,5969
2024-04-11T10:21:55.391Z,5969
2024-04-11T10:22:55.396Z,5310
2024-04-11T10:23:56.712Z,5310
2024-04-11T10:24:55.394Z,5310
2024-04-11T10:25:55.396Z,5310
2024-04-11T10:26:55.452Z,5310
2024-04-11T10:27:55.405Z,5686
2024-04-11T10:28:55.394Z,5686
2024-04-11T10:29:55.405Z,5686
2024-04-11T10:30:55.397Z,5686
2024-04-11T10:31:55.392Z,5686
2024-04-11T10:32:55.438Z,3904
2024-04-11T10:33:55.626Z,3904
2024-04-11T10:34:55.393Z,3904
2024-04-11T10:35:55.433Z,3904
2024-04-11T10:36:55.392Z,3904
2024-04-11T10:37:55.397Z,4682
2024-04-11T10:38:55.423Z,4682
2024-04-11T10:39:55.398Z,4682
2024-04-11T10:40:55.401Z,4682
2024-04-11T10:41:57.329Z,4682
2024-04-11T10:42:59.996Z,4625
2024-04-11T10:43:55.396Z,4625
2024-04-11T10:44:55.429Z,4625
2024-04-11T10:45:55.395Z,4625
2024-04-11T10:46:55.394Z,4625
2024-04-11T10:47:55.415Z,4090
2024-04-11T10:48:55.449Z,4090
2024-04-11T10:49:55.398Z,4090
2024-04-11T10:50:55.469Z,4090
2024-04-11T10:51:55.404Z,4090
2024-04-11T10:52:55.400Z,3138
2024-04-11T10:53:55.445Z,3138
2024-04-11T10:54:55.393Z,3138
2024-04-11T10:55:55.399Z,3138
2024-04-11T10:56:55.462Z,3138
2024-04-11T10:57:55.395Z,3270
2024-04-11T10:58:55.408Z,3270
2024-04-11T10:59:55.414Z,3270
2024-04-11T11:00:55.462Z,3270
2024-04-11T11:01:58.918Z,3270
2024-04-11T11:02:55.456Z,3879
2024-04-11T11:03:55.418Z,3879
2024-04-11T11:04:55.403Z,3879
2024-04-11T11:05:55.455Z,3879
2024-04-11T11:06:55.400Z,3879
2024-04-11T11:07:55.404Z,3613
2024-04-11T11:08:55.461Z,3613
2024-04-11T11:09:55.398Z,3613
2024-04-11T11:10:55.401Z,3613
2024-04-11T11:11:55.404Z,3613
2024-04-11T11:12:55.402Z,3750
2024-04-11T11:13:55.399Z,3750
2024-04-11T11:14:55.522Z,3750
2024-04-11T11:15:55.425Z,3750
2024-04-11T11:16:55.402Z,3750
2024-04-11T11:17:55.430Z,3112
2024-04-11T11:18:55.401Z,3112
2024-04-11T11:19:55.404Z,3112
2024-04-11T11:20:55.444Z,3112
2024-04-11T11:21:55.407Z,3112
2024-04-11T11:22:55.398Z,3337
2024-04-11T11:23:55.452Z,3337
2024-04-11T11:24:55.397Z,3337
2024-04-11T11:25:55.399Z,3337
2024-04-11T11:26:55.508Z,3337
2024-04-11T11:27:55.403Z,3789
2024-04-11T11:28:55.398Z,3789
2024-04-11T11:29:55.425Z,3789
2024-04-11T11:30:55.427Z,3789
2024-04-11T11:31:55.476Z,3789
2024-04-11T11:32:55.523Z,3856
2024-04-11T11:33:55.495Z,3856
2024-04-11T11:34:55.398Z,3856
2024-04-11T11:35:55.435Z,3856
2024-04-11T11:36:55.402Z,3856
2024-04-11T11:37:55.398Z,4127
2024-04-11T11:38:55.420Z,4127
2024-04-11T11:39:55.410Z,4127
2024-04-11T11:40:55.423Z,4127
2024-04-11T11:41:55.417Z,4127
2024-04-11T11:42:55.400Z,4137
2024-04-11T11:43:55.412Z,4137
2024-04-11T11:44:55.524Z,4137
2024-04-11T11:45:55.403Z,4137
2024-04-11T11:46:55.467Z,4137
2024-04-11T11:47:55.439Z,3568
2024-04-11T11:48:55.405Z,3568
2024-04-11T11:49:55.407Z,3568
2024-04-11T11:50:55.418Z,3568
2024-04-11T11:51:55.414Z,3568
2024-04-11T11:52:56.119Z,3501
2024-04-11T11:53:55.416Z,3501
2024-04-11T11:54:55.404Z,3501
2024-04-11T11:55:59.399Z,3501
2024-04-11T11:56:55.442Z,3501
2024-04-11T11:57:56.839Z,3755
2024-04-11T11:58:55.412Z,3755
2024-04-11T11:59:55.493Z,3755
2024-04-11T12:00:55.420Z,3755
2024-04-11T12:01:55.406Z,3755
2024-04-11T12:02:55.477Z,4091
2024-04-11T12:03:55.462Z,4091
2024-04-11T12:04:55.437Z,4091
2024-04-11T12:05:55.479Z,4091
2024-04-11T12:06:55.413Z,4091
2024-04-11T12:07:55.432Z,4286
2024-04-11T12:08:55.615Z,4286
2024-04-11T12:09:55.405Z,4286
2024-04-11T12:10:55.438Z,4286
2024-04-11T12:11:55.551Z,4286
2024-04-11T12:12:56.622Z,4544
2024-04-11T12:13:55.412Z,4544
2024-04-11T12:14:55.463Z,4544
2024-04-11T12:15:55.426Z,4544
2024-04-11T12:16:55.425Z,4544
2024-04-11T12:17:55.454Z,3694
2024-04-11T12:18:55.428Z,3694
2024-04-11T12:19:55.409Z,3694
2024-04-11T12:20:55.469Z,3694
2024-04-11T12:21:55.414Z,3694
2024-04-11T12:22:55.412Z,3684
2024-04-11T12:23:55.453Z,3684
2024-04-11T12:24:55.413Z,3684
2024-04-11T12:25:55.414Z,3684
2024-04-11T12:26:55.435Z,3684
2024-04-11T12:27:55.422Z,3530
2024-04-11T12:28:55.421Z,3530
2024-04-11T12:29:55.455Z,3530
2024-04-11T12:31:00.251Z,3530
2024-04-11T12:31:55.421Z,3530
2024-04-11T12:32:55.469Z,3630
2024-04-11T12:33:55.581Z,3630
2024-04-11T12:34:55.434Z,3630
2024-04-11T12:35:55.477Z,3630
2024-04-11T12:36:55.418Z,3630
2024-04-11T12:37:55.417Z,3027
2024-04-11T12:38:55.558Z,3027
2024-04-11T12:39:55.740Z,3027
2024-04-11T12:40:55.425Z,3027
2024-04-11T12:41:55.472Z,3027
2024-04-11T12:42:55.420Z,3192
2024-04-11T12:43:55.419Z,3192
2024-04-11T12:44:55.427Z,3192
2024-04-11T12:45:55.419Z,3192
2024-04-11T12:46:55.616Z,3192
2024-04-11T12:47:55.502Z,3171
2024-04-11T12:48:55.523Z,3171
2024-04-11T12:49:55.424Z,3171
2024-04-11T12:50:55.470Z,3171
2024-04-11T12:51:55.429Z,3171
2024-04-11T12:52:55.429Z,3218
2024-04-11T12:53:55.458Z,3218
2024-04-11T12:54:55.467Z,3218
2024-04-11T12:55:55.424Z,3218
2024-04-11T12:56:55.484Z,3218
2024-04-11T12:57:55.430Z,3730
2024-04-11T12:58:55.431Z,3730
2024-04-11T12:59:55.480Z,3730
2024-04-11T13:00:55.521Z,3730
2024-04-11T13:01:55.432Z,3730
2024-04-11T13:02:55.483Z,4471
2024-04-11T13:03:55.435Z,4471
2024-04-11T13:04:55.442Z,4471
2024-04-11T13:05:55.616Z,4471
2024-04-11T13:06:55.447Z,4471
2024-04-11T13:07:55.444Z,4792
2024-04-11T13:08:55.453Z,4792
2024-04-11T13:09:55.985Z,4792
2024-04-11T13:10:55.477Z,4792
2024-04-11T13:11:55.450Z,4792
2024-04-11T13:12:55.439Z,4982
2024-04-11T13:13:55.435Z,4982
2024-04-11T13:14:55.526Z,4982
2024-04-11T13:15:55.515Z,4982
2024-04-11T13:16:55.442Z,4982
2024-04-11T13:17:55.575Z,5188
2024-04-11T13:18:55.453Z,5188
2024-04-11T13:19:55.449Z,5188
2024-04-11T13:20:55.472Z,5188
2024-04-11T13:21:55.445Z,5188
2024-04-11T13:22:55.468Z,4071
2024-04-11T13:23:55.516Z,4071
2024-04-11T13:24:56.284Z,4071
2024-04-11T13:25:55.455Z,4071
2024-04-11T13:26:55.477Z,4071
2024-04-11T13:27:55.481Z,3185
2024-04-11T13:28:55.450Z,3185
2024-04-11T13:29:56.795Z,3185
2024-04-11T13:30:55.455Z,3185
2024-04-11T13:31:55.456Z,3185
2024-04-11T13:32:55.556Z,5082
2024-04-11T13:33:55.566Z,5082
2024-04-11T13:34:55.461Z,5082
2024-04-11T13:35:55.484Z,5082
2024-04-11T13:36:55.456Z,5082
2024-04-11T13:37:55.465Z,4699
2024-04-11T13:38:55.514Z,4699
2024-04-11T13:39:55.457Z,4699
2024-04-11T13:40:55.457Z,4699
2024-04-11T13:41:55.473Z,4699
2024-04-11T13:42:55.464Z,4592
2024-04-11T13:43:55.463Z,4592
2024-04-11T13:44:55.513Z,4592
2024-04-11T13:45:55.466Z,4592
2024-04-11T13:46:55.566Z,4592
2024-04-11T13:47:55.526Z,5077
2024-04-11T13:48:55.467Z,5077
2024-04-11T13:49:55.463Z,5077
2024-04-11T13:50:55.595Z,5077
2024-04-11T13:51:55.462Z,5077
2024-04-11T13:52:55.472Z,5021
2024-04-11T13:53:55.472Z,5021
2024-04-11T13:54:55.487Z,5021